Aérodrome :
LOGIN :

S'inscrire | Disclaimer

   EN    FR    IT 

 










Légende :    VFR   VFR Marginal   IFR   IFR Intensif   IFR Très Intensif
Visi : 
Plafond : 
>= 8 km
>= 3000ft
5 à 8 km
1000 à 3000 ft
1500m à 5 km
500 à 1000 ft
800 à 1500m
200 à 500 ft
< 800m
< 200 ft
Symboles :   Orages  Brouillard  Fortes neiges  Fortes précipitations  Vent > 20 kt
SIGMETs :   Divers  Orages  Givrage  Turbulence  Onde Orograph.  Cendres Volcan.






- Altitude de l'aérodrome : 157 ft
- Code IATA : LIL


LFQQ - Lille Lesquin

DERNIER METAR :
  • 240000Z AUTO 11006KT CAVOK 05/04 Q1025 TEMPO 3000 BR

METARs EXPIRÉS :
  • 232330Z AUTO 11003KT CAVOK 05/04 Q1026 TEMPO 3000 BR
  • 232300Z AUTO 11003KT CAVOK 06/04 Q1026 NOSIG
  • 232230Z AUTO 14002KT CAVOK 06/05 Q1026 NOSIG
  • 232200Z AUTO 13003KT CAVOK 06/05 Q1026 NOSIG
  • 232130Z AUTO 13003KT CAVOK 07/05 Q1026 NOSIG

TAF TAF LFQQ
Valide du 24 à 00h jusqu'au 25 à 06h UTC


232300Z 2400/2506 VRB02KT CAVOK
PROB30 2400/2408 3000 BR
BECMG 2409/2411 17010KT
TEMPO 2503/2506 3000 DZ OVC004
ATIS : +33 3 20 16 19 54



MET'MAP, la Météo Aéronautique d'un coup d'oeil ! - Copyright ORBIFLY Décembre 2007 - Disclaimer

ORBIFLY MET'MAP TEAM :

Programmation & Développement : Alexandra Zaïnal
Sur une idée originale de : Baudouin d'Aumeries
Assistance à la programmation : Marc-Olivier Méhu
Soutien technique & logistique : Manuel Goepfert

Contact : metmap@orbifly.com




SOURCES & CREDITS :

   NOAA